Terminal Aerodrome Forecast
Issued by NWS

Home | Current Version | Previous Version | Text Only | Print | Product List | Glossary On
Versions: 1 2 3 4 5 6 7 8 9 10 11 12 13 14 15
486
FTUS42 KMLB 230541
TAFISM
TAF
KISM 230541Z 2306/2406 06007KT P6SM VCSH SCT030 BKN100
     FM231400 16008KT P6SM VCSH SCT020 BKN040 OVC080
     FM231800 20008KT 5SM SHRA BKN025
      TEMPO 2318/2322 2SM +SHRA BKN012
     FM240000 VRB04KT P6SM VCSH BKN015=

USA.gov is the U.S. government's official web portal to all federal, state and local government web resources and services.